sensor_id;sensor_type;location;lat;lon;timestamp;P1;durP1;ratioP1;P2;durP2;ratioP2
3795;SDS011;1913;50.660;7.834;2024-02-21T00:00:43;25.83;;;9.73;;
3795;SDS011;1913;50.660;7.834;2024-02-21T00:03:09;27.57;;;9.83;;
3795;SDS011;1913;50.660;7.834;2024-02-21T00:05:34;31.67;;;10.20;;
3795;SDS011;1913;50.660;7.834;2024-02-21T00:07:59;24.40;;;9.50;;
3795;SDS011;1913;50.660;7.834;2024-02-21T00:10:25;17.40;;;8.00;;
3795;SDS011;1913;50.660;7.834;2024-02-21T00:12:50;24.53;;;9.30;;
3795;SDS011;1913;50.660;7.834;2024-02-21T00:15:15;21.90;;;9.50;;
3795;SDS011;1913;50.660;7.834;2024-02-21T00:17:41;25.70;;;10.17;;
3795;SDS011;1913;50.660;7.834;2024-02-21T00:20:06;21.80;;;9.23;;
3795;SDS011;1913;50.660;7.834;2024-02-21T00:22:32;23.37;;;8.93;;
3795;SDS011;1913;50.660;7.834;2024-02-21T00:24:58;22.47;;;9.10;;
3795;SDS011;1913;50.660;7.834;2024-02-21T00:27:23;19.47;;;8.93;;
3795;SDS011;1913;50.660;7.834;2024-02-21T00:29:49;23.97;;;9.53;;
3795;SDS011;1913;50.660;7.834;2024-02-21T00:32:15;19.53;;;9.23;;
3795;SDS011;1913;50.660;7.834;2024-02-21T00:34:40;19.53;;;9.03;;
3795;SDS011;1913;50.660;7.834;2024-02-21T00:37:06;19.53;;;8.63;;
3795;SDS011;1913;50.660;7.834;2024-02-21T00:39:31;22.27;;;9.50;;
3795;SDS011;1913;50.660;7.834;2024-02-21T00:41:56;22.30;;;8.87;;
3795;SDS011;1913;50.660;7.834;2024-02-21T00:44:21;22.37;;;8.50;;
3795;SDS011;1913;50.660;7.834;2024-02-21T00:46:47;19.63;;;9.10;;
3795;SDS011;1913;50.660;7.834;2024-02-21T00:49:12;22.83;;;9.63;;
3795;SDS011;1913;50.660;7.834;2024-02-21T00:51:37;25.13;;;8.53;;
3795;SDS011;1913;50.660;7.834;2024-02-21T00:54:02;20.30;;;8.83;;
3795;SDS011;1913;50.660;7.834;2024-02-21T00:56:28;17.73;;;8.23;;
3795;SDS011;1913;50.660;7.834;2024-02-21T00:58:54;22.70;;;9.80;;
3795;SDS011;1913;50.660;7.834;2024-02-21T01:01:23;25.40;;;8.83;;
3795;SDS011;1913;50.660;7.834;2024-02-21T01:03:49;30.93;;;9.37;;
3795;SDS011;1913;50.660;7.834;2024-02-21T01:06:14;25.60;;;8.97;;
3795;SDS011;1913;50.660;7.834;2024-02-21T01:08:39;19.97;;;7.67;;
3795;SDS011;1913;50.660;7.834;2024-02-21T01:11:05;21.27;;;8.80;;
3795;SDS011;1913;50.660;7.834;2024-02-21T01:13:30;22.83;;;9.17;;
3795;SDS011;1913;50.660;7.834;2024-02-21T01:15:55;24.80;;;8.57;;
3795;SDS011;1913;50.660;7.834;2024-02-21T01:18:20;26.80;;;9.10;;
3795;SDS011;1913;50.660;7.834;2024-02-21T01:20:46;15.70;;;8.33;;
3795;SDS011;1913;50.660;7.834;2024-02-21T01:23:11;20.70;;;8.77;;
3795;SDS011;1913;50.660;7.834;2024-02-21T01:25:36;18.07;;;8.37;;
3795;SDS011;1913;50.660;7.834;2024-02-21T01:28:01;33.30;;;8.50;;
3795;SDS011;1913;50.660;7.834;2024-02-21T01:30:26;27.30;;;8.43;;
3795;SDS011;1913;50.660;7.834;2024-02-21T01:32:52;24.70;;;9.23;;
3795;SDS011;1913;50.660;7.834;2024-02-21T01:35:17;18.90;;;8.20;;
3795;SDS011;1913;50.660;7.834;2024-02-21T01:37:43;29.10;;;10.00;;
3795;SDS011;1913;50.660;7.834;2024-02-21T01:40:08;24.50;;;9.30;;
3795;SDS011;1913;50.660;7.834;2024-02-21T01:42:37;19.57;;;8.77;;
3795;SDS011;1913;50.660;7.834;2024-02-21T01:45:03;21.30;;;8.70;;
3795;SDS011;1913;50.660;7.834;2024-02-21T01:47:28;18.87;;;8.23;;
3795;SDS011;1913;50.660;7.834;2024-02-21T01:49:55;22.30;;;9.03;;
3795;SDS011;1913;50.660;7.834;2024-02-21T01:52:20;20.60;;;8.40;;
3795;SDS011;1913;50.660;7.834;2024-02-21T01:54:46;16.83;;;9.13;;
3795;SDS011;1913;50.660;7.834;2024-02-21T01:57:11;16.63;;;7.53;;
3795;SDS011;1913;50.660;7.834;2024-02-21T01:59:37;28.60;;;8.77;;
3795;SDS011;1913;50.660;7.834;2024-02-21T02:02:02;20.30;;;7.90;;
3795;SDS011;1913;50.660;7.834;2024-02-21T02:04:27;21.73;;;8.00;;
3795;SDS011;1913;50.660;7.834;2024-02-21T02:06:54;18.57;;;9.20;;
3795;SDS011;1913;50.660;7.834;2024-02-21T02:09:19;29.50;;;9.30;;
3795;SDS011;1913;50.660;7.834;2024-02-21T02:11:44;20.50;;;8.47;;
3795;SDS011;1913;50.660;7.834;2024-02-21T02:14:09;30.13;;;9.33;;
3795;SDS011;1913;50.660;7.834;2024-02-21T02:16:35;20.50;;;7.33;;
3795;SDS011;1913;50.660;7.834;2024-02-21T02:19:00;23.40;;;9.13;;
3795;SDS011;1913;50.660;7.834;2024-02-21T02:21:36;15.83;;;7.80;;
3795;SDS011;1913;50.660;7.834;2024-02-21T02:24:02;21.10;;;8.63;;
3795;SDS011;1913;50.660;7.834;2024-02-21T02:26:27;18.70;;;8.77;;
3795;SDS011;1913;50.660;7.834;2024-02-21T02:28:53;20.10;;;8.30;;
3795;SDS011;1913;50.660;7.834;2024-02-21T02:31:18;19.77;;;8.53;;
3795;SDS011;1913;50.660;7.834;2024-02-21T02:33:43;20.77;;;8.03;;
3795;SDS011;1913;50.660;7.834;2024-02-21T02:36:09;22.57;;;9.13;;
3795;SDS011;1913;50.660;7.834;2024-02-21T02:38:34;17.23;;;7.37;;
3795;SDS011;1913;50.660;7.834;2024-02-21T02:40:59;21.87;;;7.90;;
3795;SDS011;1913;50.660;7.834;2024-02-21T02:43:25;22.03;;;9.20;;
3795;SDS011;1913;50.660;7.834;2024-02-21T02:45:50;20.20;;;8.20;;
3795;SDS011;1913;50.660;7.834;2024-02-21T02:48:15;25.93;;;8.63;;
3795;SDS011;1913;50.660;7.834;2024-02-21T02:50:41;16.10;;;7.67;;
3795;SDS011;1913;50.660;7.834;2024-02-21T02:53:06;22.67;;;8.73;;
3795;SDS011;1913;50.660;7.834;2024-02-21T02:55:31;18.50;;;8.47;;
3795;SDS011;1913;50.660;7.834;2024-02-21T02:57:56;20.23;;;8.50;;
3795;SDS011;1913;50.660;7.834;2024-02-21T03:00:22;18.30;;;9.20;;
3795;SDS011;1913;50.660;7.834;2024-02-21T03:02:48;22.40;;;8.87;;
3795;SDS011;1913;50.660;7.834;2024-02-21T03:05:20;14.53;;;8.30;;
3795;SDS011;1913;50.660;7.834;2024-02-21T03:07:46;17.27;;;7.57;;
3795;SDS011;1913;50.660;7.834;2024-02-21T03:10:11;17.23;;;8.70;;
3795;SDS011;1913;50.660;7.834;2024-02-21T03:12:36;13.93;;;7.50;;
3795;SDS011;1913;50.660;7.834;2024-02-21T03:15:02;23.00;;;8.53;;
3795;SDS011;1913;50.660;7.834;2024-02-21T03:17:27;21.67;;;8.07;;
3795;SDS011;1913;50.660;7.834;2024-02-21T03:19:53;20.27;;;7.97;;
3795;SDS011;1913;50.660;7.834;2024-02-21T03:22:18;23.83;;;8.03;;
3795;SDS011;1913;50.660;7.834;2024-02-21T03:24:44;18.10;;;8.00;;
3795;SDS011;1913;50.660;7.834;2024-02-21T03:27:09;22.83;;;7.83;;
3795;SDS011;1913;50.660;7.834;2024-02-21T03:29:34;15.57;;;7.73;;
3795;SDS011;1913;50.660;7.834;2024-02-21T03:31:59;16.87;;;7.57;;
3795;SDS011;1913;50.660;7.834;2024-02-21T03:34:25;16.73;;;8.30;;
3795;SDS011;1913;50.660;7.834;2024-02-21T03:36:50;17.87;;;7.80;;
3795;SDS011;1913;50.660;7.834;2024-02-21T03:39:15;17.50;;;6.87;;
3795;SDS011;1913;50.660;7.834;2024-02-21T03:41:40;23.20;;;7.90;;
3795;SDS011;1913;50.660;7.834;2024-02-21T03:44:05;20.73;;;8.13;;
3795;SDS011;1913;50.660;7.834;2024-02-21T03:46:31;17.07;;;7.13;;
3795;SDS011;1913;50.660;7.834;2024-02-21T03:48:56;27.57;;;7.47;;
3795;SDS011;1913;50.660;7.834;2024-02-21T03:51:22;14.90;;;6.80;;
3795;SDS011;1913;50.660;7.834;2024-02-21T03:53:47;23.17;;;7.17;;
3795;SDS011;1913;50.660;7.834;2024-02-21T03:56:12;23.87;;;8.13;;
3795;SDS011;1913;50.660;7.834;2024-02-21T03:58:37;18.83;;;7.13;;
3795;SDS011;1913;50.660;7.834;2024-02-21T04:01:03;16.07;;;7.33;;
3795;SDS011;1913;50.660;7.834;2024-02-21T04:03:28;21.10;;;7.67;;
3795;SDS011;1913;50.660;7.834;2024-02-21T04:05:54;18.30;;;6.80;;
3795;SDS011;1913;50.660;7.834;2024-02-21T04:08:19;20.00;;;7.90;;
3795;SDS011;1913;50.660;7.834;2024-02-21T04:10:44;21.80;;;7.00;;
3795;SDS011;1913;50.660;7.834;2024-02-21T04:13:10;21.73;;;6.70;;
3795;SDS011;1913;50.660;7.834;2024-02-21T04:15:35;27.40;;;8.43;;
3795;SDS011;1913;50.660;7.834;2024-02-21T04:18:00;19.53;;;8.00;;
3795;SDS011;1913;50.660;7.834;2024-02-21T04:20:26;19.17;;;6.67;;
3795;SDS011;1913;50.660;7.834;2024-02-21T04:22:51;22.93;;;7.10;;
3795;SDS011;1913;50.660;7.834;2024-02-21T04:25:16;17.13;;;7.63;;
3795;SDS011;1913;50.660;7.834;2024-02-21T04:27:41;23.57;;;7.60;;
3795;SDS011;1913;50.660;7.834;2024-02-21T04:30:07;20.23;;;7.97;;
3795;SDS011;1913;50.660;7.834;2024-02-21T04:32:32;24.10;;;8.03;;
3795;SDS011;1913;50.660;7.834;2024-02-21T04:34:57;23.60;;;7.63;;
3795;SDS011;1913;50.660;7.834;2024-02-21T04:37:22;22.10;;;7.80;;
3795;SDS011;1913;50.660;7.834;2024-02-21T04:39:48;14.20;;;6.90;;
3795;SDS011;1913;50.660;7.834;2024-02-21T04:42:14;19.40;;;6.63;;
3795;SDS011;1913;50.660;7.834;2024-02-21T04:44:39;17.20;;;6.90;;
3795;SDS011;1913;50.660;7.834;2024-02-21T04:47:04;16.47;;;7.83;;
3795;SDS011;1913;50.660;7.834;2024-02-21T04:49:29;19.10;;;7.70;;
3795;SDS011;1913;50.660;7.834;2024-02-21T04:51:55;30.10;;;7.33;;
3795;SDS011;1913;50.660;7.834;2024-02-21T04:54:20;20.60;;;7.77;;
3795;SDS011;1913;50.660;7.834;2024-02-21T04:56:45;21.50;;;7.57;;
3795;SDS011;1913;50.660;7.834;2024-02-21T04:59:10;22.73;;;6.93;;
3795;SDS011;1913;50.660;7.834;2024-02-21T05:01:35;23.43;;;6.83;;
3795;SDS011;1913;50.660;7.834;2024-02-21T05:04:01;16.80;;;7.17;;
3795;SDS011;1913;50.660;7.834;2024-02-21T05:06:26;17.17;;;7.40;;
3795;SDS011;1913;50.660;7.834;2024-02-21T05:08:51;19.37;;;7.43;;
3795;SDS011;1913;50.660;7.834;2024-02-21T05:11:16;14.60;;;6.53;;
3795;SDS011;1913;50.660;7.834;2024-02-21T05:13:42;21.87;;;6.50;;
3795;SDS011;1913;50.660;7.834;2024-02-21T05:16:07;22.70;;;7.13;;
3795;SDS011;1913;50.660;7.834;2024-02-21T05:18:32;21.33;;;7.03;;
3795;SDS011;1913;50.660;7.834;2024-02-21T05:20:58;24.33;;;8.10;;
3795;SDS011;1913;50.660;7.834;2024-02-21T05:23:23;22.93;;;6.83;;
3795;SDS011;1913;50.660;7.834;2024-02-21T05:25:49;19.03;;;7.13;;
3795;SDS011;1913;50.660;7.834;2024-02-21T05:28:14;19.53;;;6.53;;
3795;SDS011;1913;50.660;7.834;2024-02-21T05:30:39;28.23;;;7.87;;
3795;SDS011;1913;50.660;7.834;2024-02-21T05:33:06;27.40;;;7.50;;
3795;SDS011;1913;50.660;7.834;2024-02-21T05:35:31;13.43;;;6.47;;
3795;SDS011;1913;50.660;7.834;2024-02-21T05:37:56;18.13;;;7.10;;
3795;SDS011;1913;50.660;7.834;2024-02-21T05:40:22;17.50;;;7.40;;
3795;SDS011;1913;50.660;7.834;2024-02-21T05:42:47;19.63;;;7.40;;
3795;SDS011;1913;50.660;7.834;2024-02-21T05:45:12;18.80;;;7.40;;
3795;SDS011;1913;50.660;7.834;2024-02-21T05:47:38;18.47;;;6.27;;
3795;SDS011;1913;50.660;7.834;2024-02-21T05:50:03;19.30;;;6.83;;
3795;SDS011;1913;50.660;7.834;2024-02-21T05:52:28;22.70;;;6.50;;
3795;SDS011;1913;50.660;7.834;2024-02-21T05:54:54;14.67;;;6.97;;
3795;SDS011;1913;50.660;7.834;2024-02-21T05:57:19;21.80;;;7.30;;
3795;SDS011;1913;50.660;7.834;2024-02-21T05:59:44;15.83;;;5.70;;
3795;SDS011;1913;50.660;7.834;2024-02-21T06:02:10;22.50;;;6.77;;
3795;SDS011;1913;50.660;7.834;2024-02-21T06:04:35;21.50;;;7.50;;
3795;SDS011;1913;50.660;7.834;2024-02-21T06:07:00;21.60;;;6.80;;
3795;SDS011;1913;50.660;7.834;2024-02-21T06:09:26;14.67;;;5.83;;
3795;SDS011;1913;50.660;7.834;2024-02-21T06:11:51;15.23;;;6.50;;
3795;SDS011;1913;50.660;7.834;2024-02-21T06:14:16;23.00;;;6.30;;
3795;SDS011;1913;50.660;7.834;2024-02-21T06:16:43;18.67;;;6.70;;
3795;SDS011;1913;50.660;7.834;2024-02-21T06:19:08;13.90;;;6.30;;
3795;SDS011;1913;50.660;7.834;2024-02-21T06:21:34;14.63;;;5.50;;
3795;SDS011;1913;50.660;7.834;2024-02-21T06:23:59;14.93;;;5.87;;
3795;SDS011;1913;50.660;7.834;2024-02-21T06:26:24;16.93;;;6.53;;
3795;SDS011;1913;50.660;7.834;2024-02-21T06:28:49;22.30;;;7.60;;
3795;SDS011;1913;50.660;7.834;2024-02-21T06:31:14;18.83;;;6.27;;
3795;SDS011;1913;50.660;7.834;2024-02-21T06:33:41;18.13;;;6.33;;
3795;SDS011;1913;50.660;7.834;2024-02-21T06:36:06;17.50;;;6.00;;
3795;SDS011;1913;50.660;7.834;2024-02-21T06:38:31;16.17;;;5.67;;
3795;SDS011;1913;50.660;7.834;2024-02-21T06:40:57;12.57;;;5.80;;
3795;SDS011;1913;50.660;7.834;2024-02-21T06:43:23;18.90;;;6.63;;
3795;SDS011;1913;50.660;7.834;2024-02-21T06:45:48;17.60;;;5.90;;
3795;SDS011;1913;50.660;7.834;2024-02-21T06:48:15;14.77;;;6.50;;
3795;SDS011;1913;50.660;7.834;2024-02-21T06:50:41;19.20;;;6.73;;
3795;SDS011;1913;50.660;7.834;2024-02-21T06:53:06;18.27;;;6.87;;
3795;SDS011;1913;50.660;7.834;2024-02-21T06:55:31;16.77;;;6.83;;
3795;SDS011;1913;50.660;7.834;2024-02-21T06:57:56;17.33;;;6.00;;
3795;SDS011;1913;50.660;7.834;2024-02-21T07:00:21;21.40;;;6.23;;
3795;SDS011;1913;50.660;7.834;2024-02-21T07:02:47;15.33;;;6.27;;
3795;SDS011;1913;50.660;7.834;2024-02-21T07:05:13;21.93;;;6.30;;
3795;SDS011;1913;50.660;7.834;2024-02-21T07:07:38;16.00;;;6.23;;
3795;SDS011;1913;50.660;7.834;2024-02-21T07:10:05;18.70;;;7.10;;
3795;SDS011;1913;50.660;7.834;2024-02-21T07:12:30;17.03;;;6.40;;
3795;SDS011;1913;50.660;7.834;2024-02-21T07:14:55;20.40;;;6.80;;
3795;SDS011;1913;50.660;7.834;2024-02-21T07:17:20;17.97;;;6.93;;
3795;SDS011;1913;50.660;7.834;2024-02-21T07:19:46;16.27;;;6.13;;
3795;SDS011;1913;50.660;7.834;2024-02-21T07:22:11;17.40;;;7.20;;
3795;SDS011;1913;50.660;7.834;2024-02-21T07:24:36;20.53;;;7.03;;
3795;SDS011;1913;50.660;7.834;2024-02-21T07:27:02;16.20;;;6.07;;
3795;SDS011;1913;50.660;7.834;2024-02-21T07:29:29;16.97;;;6.50;;
3795;SDS011;1913;50.660;7.834;2024-02-21T07:31:54;17.70;;;6.93;;
3795;SDS011;1913;50.660;7.834;2024-02-21T07:34:20;17.27;;;7.00;;
3795;SDS011;1913;50.660;7.834;2024-02-21T07:36:46;20.17;;;6.60;;
3795;SDS011;1913;50.660;7.834;2024-02-21T07:39:11;21.93;;;7.07;;
3795;SDS011;1913;50.660;7.834;2024-02-21T07:41:36;16.03;;;6.60;;
3795;SDS011;1913;50.660;7.834;2024-02-21T07:44:03;16.80;;;7.20;;
3795;SDS011;1913;50.660;7.834;2024-02-21T07:46:28;22.63;;;6.80;;
3795;SDS011;1913;50.660;7.834;2024-02-21T07:48:53;15.27;;;6.80;;
3795;SDS011;1913;50.660;7.834;2024-02-21T07:51:19;18.67;;;6.67;;
3795;SDS011;1913;50.660;7.834;2024-02-21T07:53:44;14.90;;;6.73;;
3795;SDS011;1913;50.660;7.834;2024-02-21T07:56:16;17.80;;;7.40;;
3795;SDS011;1913;50.660;7.834;2024-02-21T07:58:41;16.80;;;6.13;;
3795;SDS011;1913;50.660;7.834;2024-02-21T08:01:07;20.20;;;6.73;;
3795;SDS011;1913;50.660;7.834;2024-02-21T08:03:32;16.90;;;5.80;;
3795;SDS011;1913;50.660;7.834;2024-02-21T08:05:58;11.80;;;6.30;;
3795;SDS011;1913;50.660;7.834;2024-02-21T08:08:23;15.20;;;6.13;;
3795;SDS011;1913;50.660;7.834;2024-02-21T08:10:49;17.17;;;6.10;;
3795;SDS011;1913;50.660;7.834;2024-02-21T08:13:15;16.70;;;7.90;;
3795;SDS011;1913;50.660;7.834;2024-02-21T08:15:40;18.03;;;5.77;;
3795;SDS011;1913;50.660;7.834;2024-02-21T08:18:07;22.43;;;6.67;;
3795;SDS011;1913;50.660;7.834;2024-02-21T08:20:32;17.07;;;6.50;;
3795;SDS011;1913;50.660;7.834;2024-02-21T08:22:57;13.37;;;6.70;;
3795;SDS011;1913;50.660;7.834;2024-02-21T08:25:22;16.13;;;6.87;;
3795;SDS011;1913;50.660;7.834;2024-02-21T08:27:47;15.57;;;6.40;;
3795;SDS011;1913;50.660;7.834;2024-02-21T08:30:13;15.97;;;6.00;;
3795;SDS011;1913;50.660;7.834;2024-02-21T08:32:38;19.27;;;6.03;;
3795;SDS011;1913;50.660;7.834;2024-02-21T08:35:03;9.63;;;6.10;;
3795;SDS011;1913;50.660;7.834;2024-02-21T08:37:30;17.07;;;6.50;;
3795;SDS011;1913;50.660;7.834;2024-02-21T08:39:55;18.80;;;6.23;;
3795;SDS011;1913;50.660;7.834;2024-02-21T08:42:20;12.13;;;6.07;;
3795;SDS011;1913;50.660;7.834;2024-02-21T08:44:45;11.93;;;5.70;;
3795;SDS011;1913;50.660;7.834;2024-02-21T08:47:11;24.67;;;6.10;;
3795;SDS011;1913;50.660;7.834;2024-02-21T08:49:37;15.20;;;5.40;;
3795;SDS011;1913;50.660;7.834;2024-02-21T08:52:05;17.83;;;5.90;;
3795;SDS011;1913;50.660;7.834;2024-02-21T08:54:33;14.33;;;6.03;;
3795;SDS011;1913;50.660;7.834;2024-02-21T08:56:59;17.33;;;5.33;;
3795;SDS011;1913;50.660;7.834;2024-02-21T08:59:24;14.20;;;6.23;;
3795;SDS011;1913;50.660;7.834;2024-02-21T09:01:51;12.67;;;5.50;;
3795;SDS011;1913;50.660;7.834;2024-02-21T09:04:17;14.67;;;6.30;;
3795;SDS011;1913;50.660;7.834;2024-02-21T09:06:42;16.00;;;5.93;;
3795;SDS011;1913;50.660;7.834;2024-02-21T09:09:08;17.13;;;5.80;;
3795;SDS011;1913;50.660;7.834;2024-02-21T09:11:34;10.93;;;5.73;;
3795;SDS011;1913;50.660;7.834;2024-02-21T09:13:59;12.80;;;6.20;;
3795;SDS011;1913;50.660;7.834;2024-02-21T09:16:24;10.00;;;6.03;;
3795;SDS011;1913;50.660;7.834;2024-02-21T09:18:49;14.90;;;6.30;;
3795;SDS011;1913;50.660;7.834;2024-02-21T09:21:14;17.17;;;6.20;;
3795;SDS011;1913;50.660;7.834;2024-02-21T09:23:40;15.43;;;6.10;;
3795;SDS011;1913;50.660;7.834;2024-02-21T09:26:05;16.60;;;6.70;;
3795;SDS011;1913;50.660;7.834;2024-02-21T09:28:30;8.97;;;5.40;;
3795;SDS011;1913;50.660;7.834;2024-02-21T09:30:55;11.90;;;5.30;;
3795;SDS011;1913;50.660;7.834;2024-02-21T09:33:20;12.57;;;5.47;;
3795;SDS011;1913;50.660;7.834;2024-02-21T09:35:45;17.70;;;6.63;;
3795;SDS011;1913;50.660;7.834;2024-02-21T09:38:12;14.90;;;5.03;;
3795;SDS011;1913;50.660;7.834;2024-02-21T09:40:37;16.53;;;6.70;;
3795;SDS011;1913;50.660;7.834;2024-02-21T09:43:04;17.30;;;5.50;;
3795;SDS011;1913;50.660;7.834;2024-02-21T09:45:31;13.83;;;6.13;;
3795;SDS011;1913;50.660;7.834;2024-02-21T09:48:06;17.83;;;6.10;;
3795;SDS011;1913;50.660;7.834;2024-02-21T09:50:36;24.50;;;6.30;;
3795;SDS011;1913;50.660;7.834;2024-02-21T09:53:02;17.70;;;5.67;;
3795;SDS011;1913;50.660;7.834;2024-02-21T09:55:27;9.47;;;4.97;;
3795;SDS011;1913;50.660;7.834;2024-02-21T09:57:54;18.50;;;5.23;;
3795;SDS011;1913;50.660;7.834;2024-02-21T10:00:19;19.07;;;6.20;;
3795;SDS011;1913;50.660;7.834;2024-02-21T10:02:47;20.33;;;5.93;;
3795;SDS011;1913;50.660;7.834;2024-02-21T10:05:12;14.90;;;5.60;;
3795;SDS011;1913;50.660;7.834;2024-02-21T10:07:38;22.07;;;6.30;;
3795;SDS011;1913;50.660;7.834;2024-02-21T10:10:04;14.07;;;5.43;;
3795;SDS011;1913;50.660;7.834;2024-02-21T10:12:30;13.30;;;5.63;;
3795;SDS011;1913;50.660;7.834;2024-02-21T10:15:01;15.90;;;4.93;;
3795;SDS011;1913;50.660;7.834;2024-02-21T10:17:27;30.40;;;9.50;;
3795;SDS011;1913;50.660;7.834;2024-02-21T10:19:52;16.90;;;5.50;;
3795;SDS011;1913;50.660;7.834;2024-02-21T10:22:17;10.90;;;5.43;;
3795;SDS011;1913;50.660;7.834;2024-02-21T10:24:42;15.17;;;5.40;;
3795;SDS011;1913;50.660;7.834;2024-02-21T10:27:08;15.43;;;5.60;;
3795;SDS011;1913;50.660;7.834;2024-02-21T10:29:35;15.37;;;6.03;;
3795;SDS011;1913;50.660;7.834;2024-02-21T10:32:04;11.83;;;4.40;;
3795;SDS011;1913;50.660;7.834;2024-02-21T10:34:31;19.30;;;6.40;;
3795;SDS011;1913;50.660;7.834;2024-02-21T10:37:02;16.40;;;5.20;;
3795;SDS011;1913;50.660;7.834;2024-02-21T10:39:28;18.83;;;5.60;;
3795;SDS011;1913;50.660;7.834;2024-02-21T10:41:54;19.30;;;6.13;;
3795;SDS011;1913;50.660;7.834;2024-02-21T10:44:20;9.77;;;5.00;;
3795;SDS011;1913;50.660;7.834;2024-02-21T10:46:46;12.83;;;5.13;;
3795;SDS011;1913;50.660;7.834;2024-02-21T10:49:27;14.80;;;4.40;;
3795;SDS011;1913;50.660;7.834;2024-02-21T10:52:06;15.03;;;4.83;;
3795;SDS011;1913;50.660;7.834;2024-02-21T10:57:18;14.40;;;5.37;;
3795;SDS011;1913;50.660;7.834;2024-02-21T10:59:44;10.00;;;4.90;;
3795;SDS011;1913;50.660;7.834;2024-02-21T11:02:10;11.67;;;5.00;;
3795;SDS011;1913;50.660;7.834;2024-02-21T11:04:35;16.57;;;5.30;;
3795;SDS011;1913;50.660;7.834;2024-02-21T11:07:01;14.93;;;4.87;;
3795;SDS011;1913;50.660;7.834;2024-02-21T11:09:32;11.57;;;4.73;;
3795;SDS011;1913;50.660;7.834;2024-02-21T11:11:57;10.50;;;4.23;;
3795;SDS011;1913;50.660;7.834;2024-02-21T11:14:26;12.37;;;4.33;;
3795;SDS011;1913;50.660;7.834;2024-02-21T11:16:51;11.93;;;4.20;;
3795;SDS011;1913;50.660;7.834;2024-02-21T11:19:24;14.53;;;4.90;;
3795;SDS011;1913;50.660;7.834;2024-02-21T11:21:50;11.87;;;4.70;;
3795;SDS011;1913;50.660;7.834;2024-02-21T11:27:19;8.90;;;4.93;;
3795;SDS011;1913;50.660;7.834;2024-02-21T11:29:48;8.03;;;4.47;;
3795;SDS011;1913;50.660;7.834;2024-02-21T11:32:16;7.90;;;4.27;;
3795;SDS011;1913;50.660;7.834;2024-02-21T11:37:18;8.70;;;4.57;;
3795;SDS011;1913;50.660;7.834;2024-02-21T11:39:44;10.83;;;4.50;;
3795;SDS011;1913;50.660;7.834;2024-02-21T11:42:09;13.70;;;3.50;;
3795;SDS011;1913;50.660;7.834;2024-02-21T11:44:35;7.70;;;3.80;;
3795;SDS011;1913;50.660;7.834;2024-02-21T11:47:00;7.97;;;4.33;;
3795;SDS011;1913;50.660;7.834;2024-02-21T11:49:26;12.00;;;4.23;;
3795;SDS011;1913;50.660;7.834;2024-02-21T11:52:01;10.57;;;4.30;;
3795;SDS011;1913;50.660;7.834;2024-02-21T11:54:29;13.07;;;4.00;;
3795;SDS011;1913;50.660;7.834;2024-02-21T11:56:54;8.40;;;3.50;;
3795;SDS011;1913;50.660;7.834;2024-02-21T11:59:19;11.40;;;3.90;;
3795;SDS011;1913;50.660;7.834;2024-02-21T12:01:44;12.10;;;4.03;;
3795;SDS011;1913;50.660;7.834;2024-02-21T12:04:10;10.13;;;3.60;;
3795;SDS011;1913;50.660;7.834;2024-02-21T12:06:35;8.30;;;3.33;;
3795;SDS011;1913;50.660;7.834;2024-02-21T12:09:00;8.80;;;3.50;;
3795;SDS011;1913;50.660;7.834;2024-02-21T12:11:25;9.40;;;3.83;;
3795;SDS011;1913;50.660;7.834;2024-02-21T12:14:01;11.67;;;3.53;;
3795;SDS011;1913;50.660;7.834;2024-02-21T12:16:28;7.57;;;2.93;;
3795;SDS011;1913;50.660;7.834;2024-02-21T12:18:54;11.67;;;4.10;;
3795;SDS011;1913;50.660;7.834;2024-02-21T12:21:23;8.17;;;3.10;;
3795;SDS011;1913;50.660;7.834;2024-02-21T12:23:48;13.00;;;3.53;;
3795;SDS011;1913;50.660;7.834;2024-02-21T12:26:13;8.73;;;3.17;;
3795;SDS011;1913;50.660;7.834;2024-02-21T12:28:38;7.27;;;2.70;;
3795;SDS011;1913;50.660;7.834;2024-02-21T12:31:03;12.50;;;3.60;;
3795;SDS011;1913;50.660;7.834;2024-02-21T12:33:29;10.77;;;3.30;;
3795;SDS011;1913;50.660;7.834;2024-02-21T12:35:54;17.10;;;4.20;;
3795;SDS011;1913;50.660;7.834;2024-02-21T12:38:20;12.40;;;3.37;;
3795;SDS011;1913;50.660;7.834;2024-02-21T12:40:45;17.10;;;3.13;;
3795;SDS011;1913;50.660;7.834;2024-02-21T12:43:10;8.30;;;3.63;;
3795;SDS011;1913;50.660;7.834;2024-02-21T12:45:36;8.10;;;3.40;;
3795;SDS011;1913;50.660;7.834;2024-02-21T12:48:01;12.17;;;3.70;;
3795;SDS011;1913;50.660;7.834;2024-02-21T12:50:26;11.40;;;3.60;;
3795;SDS011;1913;50.660;7.834;2024-02-21T12:52:51;10.83;;;3.10;;
3795;SDS011;1913;50.660;7.834;2024-02-21T12:55:17;11.33;;;3.13;;
3795;SDS011;1913;50.660;7.834;2024-02-21T12:57:42;13.57;;;3.30;;
3795;SDS011;1913;50.660;7.834;2024-02-21T13:00:07;8.27;;;2.60;;
3795;SDS011;1913;50.660;7.834;2024-02-21T13:02:34;7.60;;;3.50;;
3795;SDS011;1913;50.660;7.834;2024-02-21T13:04:59;13.83;;;3.33;;
3795;SDS011;1913;50.660;7.834;2024-02-21T13:07:25;8.40;;;3.60;;
3795;SDS011;1913;50.660;7.834;2024-02-21T13:09:50;5.70;;;2.83;;
3795;SDS011;1913;50.660;7.834;2024-02-21T13:12:15;9.80;;;3.00;;
3795;SDS011;1913;50.660;7.834;2024-02-21T13:14:41;13.80;;;2.73;;
3795;SDS011;1913;50.660;7.834;2024-02-21T13:17:08;8.97;;;2.90;;
3795;SDS011;1913;50.660;7.834;2024-02-21T13:19:34;8.37;;;2.83;;
3795;SDS011;1913;50.660;7.834;2024-02-21T13:21:59;7.80;;;2.70;;
3795;SDS011;1913;50.660;7.834;2024-02-21T13:24:24;16.77;;;3.00;;
3795;SDS011;1913;50.660;7.834;2024-02-21T13:26:49;9.77;;;2.43;;
3795;SDS011;1913;50.660;7.834;2024-02-21T13:29:15;8.30;;;3.00;;
3795;SDS011;1913;50.660;7.834;2024-02-21T13:31:40;8.70;;;2.87;;
3795;SDS011;1913;50.660;7.834;2024-02-21T13:34:05;7.80;;;2.60;;
3795;SDS011;1913;50.660;7.834;2024-02-21T13:36:30;9.10;;;2.80;;
3795;SDS011;1913;50.660;7.834;2024-02-21T13:38:55;9.10;;;2.33;;
3795;SDS011;1913;50.660;7.834;2024-02-21T13:41:21;8.23;;;2.57;;
3795;SDS011;1913;50.660;7.834;2024-02-21T13:43:48;7.10;;;2.73;;
3795;SDS011;1913;50.660;7.834;2024-02-21T13:46:13;9.03;;;2.50;;
3795;SDS011;1913;50.660;7.834;2024-02-21T13:48:39;10.10;;;2.50;;
3795;SDS011;1913;50.660;7.834;2024-02-21T13:51:04;7.07;;;2.17;;
3795;SDS011;1913;50.660;7.834;2024-02-21T13:53:29;6.57;;;2.10;;
3795;SDS011;1913;50.660;7.834;2024-02-21T13:55:55;7.93;;;2.37;;
3795;SDS011;1913;50.660;7.834;2024-02-21T13:58:20;8.50;;;2.43;;
3795;SDS011;1913;50.660;7.834;2024-02-21T14:00:46;10.67;;;2.17;;
3795;SDS011;1913;50.660;7.834;2024-02-21T14:03:11;4.80;;;1.90;;
3795;SDS011;1913;50.660;7.834;2024-02-21T14:05:36;7.73;;;2.00;;
3795;SDS011;1913;50.660;7.834;2024-02-21T14:08:01;7.10;;;2.10;;
3795;SDS011;1913;50.660;7.834;2024-02-21T14:10:27;9.07;;;2.03;;
3795;SDS011;1913;50.660;7.834;2024-02-21T14:12:53;2.50;;;2.00;;
3795;SDS011;1913;50.660;7.834;2024-02-21T14:15:18;10.10;;;2.30;;
3795;SDS011;1913;50.660;7.834;2024-02-21T14:17:47;5.33;;;1.90;;
3795;SDS011;1913;50.660;7.834;2024-02-21T14:20:19;7.70;;;2.10;;
3795;SDS011;1913;50.660;7.834;2024-02-21T14:22:44;11.23;;;2.90;;
3795;SDS011;1913;50.660;7.834;2024-02-21T14:25:09;3.77;;;1.73;;
3795;SDS011;1913;50.660;7.834;2024-02-21T14:27:35;7.00;;;2.07;;
3795;SDS011;1913;50.660;7.834;2024-02-21T14:30:03;8.53;;;2.57;;
3795;SDS011;1913;50.660;7.834;2024-02-21T14:32:28;6.60;;;2.23;;
3795;SDS011;1913;50.660;7.834;2024-02-21T14:34:54;4.90;;;2.10;;
3795;SDS011;1913;50.660;7.834;2024-02-21T14:37:19;8.80;;;1.87;;
3795;SDS011;1913;50.660;7.834;2024-02-21T14:39:46;4.30;;;2.13;;
3795;SDS011;1913;50.660;7.834;2024-02-21T14:42:11;4.87;;;1.90;;
3795;SDS011;1913;50.660;7.834;2024-02-21T14:44:37;5.97;;;2.37;;
3795;SDS011;1913;50.660;7.834;2024-02-21T14:47:02;5.70;;;1.80;;
3795;SDS011;1913;50.660;7.834;2024-02-21T14:49:28;7.13;;;2.47;;
3795;SDS011;1913;50.660;7.834;2024-02-21T14:51:53;9.33;;;2.30;;
3795;SDS011;1913;50.660;7.834;2024-02-21T14:54:18;6.07;;;2.10;;
3795;SDS011;1913;50.660;7.834;2024-02-21T14:56:44;5.23;;;2.03;;
3795;SDS011;1913;50.660;7.834;2024-02-21T14:59:11;3.40;;;1.63;;
3795;SDS011;1913;50.660;7.834;2024-02-21T15:01:36;6.13;;;2.87;;